OKS weather

Garden County Airport/King Rhiley Field
Oshkosh, Nebraska, United States

Public forecast

Using degrees Fahrenheit for public forecast. Weather courtesy of forecast.io.

METAR (pilot weather report)

Closest report is Searle Field, 31.3 nm (58.1 km) ESE. Retrieved 2019/08/19 15:35 UTC (0 seconds ago):

KOGA 191535Z AUTO 17009KT 7SM OVC006 23/21 A2999 RMK AO2 T02290207

TAF (pilot weather forecast)

Closest forecast is Sidney Municipal-Lloyd W Carr Field, 33.7 nm (62.3 km) WSW. Retrieved 2019/08/19 12:30 UTC (3 hours ago):

TAF KSNY 191124Z 1912/2012 18005KT 1SM BR SKC TEMPO 1912/1914 1/4SM FG VV002 FM191400 VRB03KT 4SM BR SKC FM191600 29006KT P6SM SKC FM192200 12010G20KT P6SM SKC FM200300 11008KT P6SM SCT250